sensor_id;sensor_type;location;lat;lon;timestamp;P1;durP1;ratioP1;P2;durP2;ratioP2
61911;SDS011;49973;52.084;5.412;2023-04-25T00:01:05;20.73;;;3.00;;
61911;SDS011;49973;52.084;5.412;2023-04-25T00:03:37;10.03;;;3.50;;
61911;SDS011;49973;52.084;5.412;2023-04-25T00:06:06;9.47;;;2.07;;
61911;SDS011;49973;52.084;5.412;2023-04-25T00:08:35;10.63;;;4.27;;
61911;SDS011;49973;52.084;5.412;2023-04-25T00:11:04;17.23;;;3.60;;
61911;SDS011;49973;52.084;5.412;2023-04-25T00:13:32;7.80;;;2.80;;
61911;SDS011;49973;52.084;5.412;2023-04-25T00:16:01;14.27;;;3.17;;
61911;SDS011;49973;52.084;5.412;2023-04-25T00:18:31;15.53;;;3.30;;
61911;SDS011;49973;52.084;5.412;2023-04-25T00:21:02;13.23;;;2.80;;
61911;SDS011;49973;52.084;5.412;2023-04-25T00:23:33;17.33;;;3.03;;
61911;SDS011;49973;52.084;5.412;2023-04-25T00:26:03;6.33;;;3.10;;
61911;SDS011;49973;52.084;5.412;2023-04-25T00:28:31;20.07;;;3.43;;
61911;SDS011;49973;52.084;5.412;2023-04-25T00:31:00;16.00;;;3.50;;
61911;SDS011;49973;52.084;5.412;2023-04-25T00:33:28;17.30;;;4.17;;
61911;SDS011;49973;52.084;5.412;2023-04-25T00:35:57;14.87;;;3.50;;
61911;SDS011;49973;52.084;5.412;2023-04-25T00:38:27;16.90;;;5.03;;
61911;SDS011;49973;52.084;5.412;2023-04-25T00:40:56;11.77;;;3.30;;
61911;SDS011;49973;52.084;5.412;2023-04-25T00:43:25;12.97;;;2.37;;
61911;SDS011;49973;52.084;5.412;2023-04-25T00:45:54;17.27;;;3.97;;
61911;SDS011;49973;52.084;5.412;2023-04-25T00:48:24;10.70;;;2.50;;
61911;SDS011;49973;52.084;5.412;2023-04-25T00:50:53;6.47;;;2.73;;
61911;SDS011;49973;52.084;5.412;2023-04-25T00:53:25;9.40;;;2.30;;
61911;SDS011;49973;52.084;5.412;2023-04-25T00:55:56;16.33;;;3.50;;
61911;SDS011;49973;52.084;5.412;2023-04-25T00:58:24;13.27;;;3.33;;
61911;SDS011;49973;52.084;5.412;2023-04-25T01:00:53;9.93;;;3.07;;
61911;SDS011;49973;52.084;5.412;2023-04-25T01:03:24;12.83;;;2.57;;
61911;SDS011;49973;52.084;5.412;2023-04-25T01:05:55;11.77;;;2.67;;
61911;SDS011;49973;52.084;5.412;2023-04-25T01:08:24;8.33;;;3.07;;
61911;SDS011;49973;52.084;5.412;2023-04-25T01:10:53;13.53;;;3.57;;
61911;SDS011;49973;52.084;5.412;2023-04-25T01:13:23;7.03;;;2.93;;
61911;SDS011;49973;52.084;5.412;2023-04-25T01:15:52;17.60;;;3.10;;
61911;SDS011;49973;52.084;5.412;2023-04-25T01:18:20;16.40;;;3.37;;
61911;SDS011;49973;52.084;5.412;2023-04-25T01:20:49;11.43;;;3.03;;
61911;SDS011;49973;52.084;5.412;2023-04-25T01:23:22;12.83;;;3.40;;
61911;SDS011;49973;52.084;5.412;2023-04-25T01:25:51;15.07;;;3.60;;
61911;SDS011;49973;52.084;5.412;2023-04-25T01:28:21;11.43;;;3.83;;
61911;SDS011;49973;52.084;5.412;2023-04-25T01:30:50;12.40;;;2.87;;
61911;SDS011;49973;52.084;5.412;2023-04-25T01:33:20;6.00;;;2.30;;
61911;SDS011;49973;52.084;5.412;2023-04-25T01:35:49;22.13;;;3.27;;
61911;SDS011;49973;52.084;5.412;2023-04-25T01:38:19;11.60;;;2.63;;
61911;SDS011;49973;52.084;5.412;2023-04-25T01:40:51;9.20;;;2.63;;
61911;SDS011;49973;52.084;5.412;2023-04-25T01:43:21;15.87;;;3.13;;
61911;SDS011;49973;52.084;5.412;2023-04-25T01:45:50;18.10;;;3.40;;
61911;SDS011;49973;52.084;5.412;2023-04-25T01:48:18;17.53;;;3.10;;
61911;SDS011;49973;52.084;5.412;2023-04-25T01:50:47;10.70;;;3.70;;
61911;SDS011;49973;52.084;5.412;2023-04-25T01:53:17;14.03;;;4.60;;
61911;SDS011;49973;52.084;5.412;2023-04-25T01:55:47;12.80;;;4.23;;
61911;SDS011;49973;52.084;5.412;2023-04-25T01:58:19;7.83;;;3.07;;
61911;SDS011;49973;52.084;5.412;2023-04-25T02:01:11;13.97;;;3.53;;
61911;SDS011;49973;52.084;5.412;2023-04-25T02:03:45;16.17;;;3.33;;
61911;SDS011;49973;52.084;5.412;2023-04-25T02:06:24;8.03;;;3.07;;
61911;SDS011;49973;52.084;5.412;2023-04-25T02:08:56;18.53;;;2.93;;
61911;SDS011;49973;52.084;5.412;2023-04-25T02:11:25;11.13;;;2.77;;
61911;SDS011;49973;52.084;5.412;2023-04-25T02:14:20;19.47;;;3.70;;
61911;SDS011;49973;52.084;5.412;2023-04-25T02:16:56;10.43;;;3.07;;
61911;SDS011;49973;52.084;5.412;2023-04-25T02:19:25;14.90;;;3.17;;
61911;SDS011;49973;52.084;5.412;2023-04-25T02:21:54;14.73;;;3.73;;
61911;SDS011;49973;52.084;5.412;2023-04-25T02:24:23;14.10;;;3.53;;
61911;SDS011;49973;52.084;5.412;2023-04-25T02:26:57;10.20;;;2.87;;
61911;SDS011;49973;52.084;5.412;2023-04-25T02:29:25;19.97;;;3.00;;
61911;SDS011;49973;52.084;5.412;2023-04-25T02:31:54;11.27;;;3.27;;
61911;SDS011;49973;52.084;5.412;2023-04-25T02:34:23;13.07;;;3.40;;
61911;SDS011;49973;52.084;5.412;2023-04-25T02:36:51;21.33;;;3.27;;
61911;SDS011;49973;52.084;5.412;2023-04-25T02:39:20;7.87;;;2.47;;
61911;SDS011;49973;52.084;5.412;2023-04-25T02:41:49;10.20;;;3.10;;
61911;SDS011;49973;52.084;5.412;2023-04-25T02:44:19;14.57;;;3.30;;
61911;SDS011;49973;52.084;5.412;2023-04-25T02:46:47;13.13;;;3.97;;
61911;SDS011;49973;52.084;5.412;2023-04-25T02:49:16;13.57;;;3.03;;
61911;SDS011;49973;52.084;5.412;2023-04-25T02:51:44;13.30;;;3.20;;
61911;SDS011;49973;52.084;5.412;2023-04-25T02:54:13;14.53;;;3.20;;
61911;SDS011;49973;52.084;5.412;2023-04-25T02:56:46;15.47;;;3.83;;
61911;SDS011;49973;52.084;5.412;2023-04-25T02:59:21;11.97;;;3.00;;
61911;SDS011;49973;52.084;5.412;2023-04-25T03:01:50;8.20;;;3.57;;
61911;SDS011;49973;52.084;5.412;2023-04-25T03:04:18;19.23;;;3.67;;
61911;SDS011;49973;52.084;5.412;2023-04-25T03:06:47;11.37;;;3.43;;
61911;SDS011;49973;52.084;5.412;2023-04-25T03:09:16;17.17;;;4.00;;
61911;SDS011;49973;52.084;5.412;2023-04-25T03:11:46;17.67;;;3.47;;
61911;SDS011;49973;52.084;5.412;2023-04-25T03:14:14;7.07;;;3.57;;
61911;SDS011;49973;52.084;5.412;2023-04-25T03:16:45;18.20;;;3.97;;
61911;SDS011;49973;52.084;5.412;2023-04-25T03:19:13;16.53;;;3.60;;
61911;SDS011;49973;52.084;5.412;2023-04-25T03:21:43;15.37;;;4.47;;
61911;SDS011;49973;52.084;5.412;2023-04-25T03:24:12;17.67;;;3.90;;
61911;SDS011;49973;52.084;5.412;2023-04-25T03:26:40;10.13;;;3.80;;
61911;SDS011;49973;52.084;5.412;2023-04-25T03:29:09;7.33;;;3.50;;
61911;SDS011;49973;52.084;5.412;2023-04-25T03:31:39;12.53;;;3.57;;
61911;SDS011;49973;52.084;5.412;2023-04-25T03:34:10;12.50;;;3.53;;
61911;SDS011;49973;52.084;5.412;2023-04-25T03:36:38;14.20;;;3.20;;
61911;SDS011;49973;52.084;5.412;2023-04-25T03:39:08;12.53;;;4.07;;
61911;SDS011;49973;52.084;5.412;2023-04-25T03:41:37;11.00;;;3.93;;
61911;SDS011;49973;52.084;5.412;2023-04-25T03:44:12;20.40;;;4.00;;
61911;SDS011;49973;52.084;5.412;2023-04-25T03:46:40;6.60;;;3.47;;
61911;SDS011;49973;52.084;5.412;2023-04-25T03:49:10;7.40;;;2.77;;
61911;SDS011;49973;52.084;5.412;2023-04-25T03:52:00;13.57;;;3.77;;
61911;SDS011;49973;52.084;5.412;2023-04-25T03:54:35;15.10;;;3.83;;
61911;SDS011;49973;52.084;5.412;2023-04-25T03:57:07;11.23;;;3.17;;
61911;SDS011;49973;52.084;5.412;2023-04-25T03:59:38;13.50;;;4.13;;
61911;SDS011;49973;52.084;5.412;2023-04-25T04:02:10;15.23;;;3.13;;
61911;SDS011;49973;52.084;5.412;2023-04-25T04:04:41;8.47;;;2.60;;
61911;SDS011;49973;52.084;5.412;2023-04-25T04:07:11;11.47;;;3.27;;
61911;SDS011;49973;52.084;5.412;2023-04-25T04:09:42;10.17;;;2.80;;
61911;SDS011;49973;52.084;5.412;2023-04-25T04:12:17;7.63;;;3.23;;
61911;SDS011;49973;52.084;5.412;2023-04-25T04:14:45;8.40;;;2.47;;
61911;SDS011;49973;52.084;5.412;2023-04-25T04:17:14;14.13;;;3.10;;
61911;SDS011;49973;52.084;5.412;2023-04-25T04:19:44;14.57;;;3.37;;
61911;SDS011;49973;52.084;5.412;2023-04-25T04:22:18;14.83;;;3.50;;
61911;SDS011;49973;52.084;5.412;2023-04-25T04:24:48;10.67;;;4.50;;
61911;SDS011;49973;52.084;5.412;2023-04-25T04:27:31;12.90;;;3.00;;
61911;SDS011;49973;52.084;5.412;2023-04-25T04:30:18;9.50;;;2.90;;
61911;SDS011;49973;52.084;5.412;2023-04-25T04:32:59;7.40;;;2.67;;
61911;SDS011;49973;52.084;5.412;2023-04-25T04:35:30;15.93;;;3.70;;
61911;SDS011;49973;52.084;5.412;2023-04-25T04:37:59;7.40;;;3.03;;
61911;SDS011;49973;52.084;5.412;2023-04-25T04:40:32;14.50;;;2.57;;
61911;SDS011;49973;52.084;5.412;2023-04-25T04:43:11;8.17;;;2.37;;
61911;SDS011;49973;52.084;5.412;2023-04-25T04:46:09;8.07;;;2.73;;
61911;SDS011;49973;52.084;5.412;2023-04-25T04:48:55;5.80;;;2.03;;
61911;SDS011;49973;52.084;5.412;2023-04-25T04:51:48;8.20;;;2.53;;
61911;SDS011;49973;52.084;5.412;2023-04-25T04:54:35;9.40;;;2.93;;
61911;SDS011;49973;52.084;5.412;2023-04-25T04:57:14;6.10;;;2.60;;
61911;SDS011;49973;52.084;5.412;2023-04-25T05:00:01;11.23;;;2.73;;
61911;SDS011;49973;52.084;5.412;2023-04-25T05:03:05;7.70;;;2.90;;
61911;SDS011;49973;52.084;5.412;2023-04-25T05:05:41;6.83;;;2.23;;
61911;SDS011;49973;52.084;5.412;2023-04-25T05:08:32;11.10;;;2.00;;
61911;SDS011;49973;52.084;5.412;2023-04-25T05:11:24;9.83;;;2.10;;
61911;SDS011;49973;52.084;5.412;2023-04-25T05:14:22;5.00;;;1.93;;
61911;SDS011;49973;52.084;5.412;2023-04-25T05:17:13;8.00;;;2.27;;
61911;SDS011;49973;52.084;5.412;2023-04-25T05:20:10;7.20;;;1.60;;
61911;SDS011;49973;52.084;5.412;2023-04-25T05:22:52;5.30;;;2.17;;
61911;SDS011;49973;52.084;5.412;2023-04-25T05:25:36;5.37;;;1.53;;
61911;SDS011;49973;52.084;5.412;2023-04-25T05:28:10;3.10;;;1.40;;
61911;SDS011;49973;52.084;5.412;2023-04-25T05:31:09;11.17;;;1.93;;
61911;SDS011;49973;52.084;5.412;2023-04-25T05:33:46;8.63;;;2.37;;
61911;SDS011;49973;52.084;5.412;2023-04-25T05:36:15;3.47;;;2.10;;
61911;SDS011;49973;52.084;5.412;2023-04-25T05:38:44;7.13;;;2.00;;
61911;SDS011;49973;52.084;5.412;2023-04-25T05:41:34;9.03;;;2.10;;
61911;SDS011;49973;52.084;5.412;2023-04-25T05:44:25;7.73;;;1.70;;
61911;SDS011;49973;52.084;5.412;2023-04-25T05:47:17;8.83;;;2.03;;
61911;SDS011;49973;52.084;5.412;2023-04-25T05:50:07;3.53;;;1.47;;
61911;SDS011;49973;52.084;5.412;2023-04-25T05:52:47;9.43;;;2.37;;
61911;SDS011;49973;52.084;5.412;2023-04-25T05:55:44;13.67;;;1.90;;
61911;SDS011;49973;52.084;5.412;2023-04-25T05:58:23;6.70;;;1.40;;
61911;SDS011;49973;52.084;5.412;2023-04-25T06:00:53;5.63;;;1.63;;
61911;SDS011;49973;52.084;5.412;2023-04-25T06:03:22;4.40;;;1.50;;
61911;SDS011;49973;52.084;5.412;2023-04-25T06:05:51;4.90;;;1.70;;
61911;SDS011;49973;52.084;5.412;2023-04-25T06:08:20;3.50;;;1.23;;
61911;SDS011;49973;52.084;5.412;2023-04-25T06:10:49;10.13;;;2.70;;
61911;SDS011;49973;52.084;5.412;2023-04-25T06:13:18;7.70;;;1.30;;
61911;SDS011;49973;52.084;5.412;2023-04-25T06:15:48;6.67;;;1.57;;
61911;SDS011;49973;52.084;5.412;2023-04-25T06:18:17;7.50;;;1.70;;
61911;SDS011;49973;52.084;5.412;2023-04-25T06:20:46;7.13;;;1.40;;
61911;SDS011;49973;52.084;5.412;2023-04-25T06:23:16;7.90;;;1.77;;
61911;SDS011;49973;52.084;5.412;2023-04-25T06:25:51;7.70;;;1.77;;
61911;SDS011;49973;52.084;5.412;2023-04-25T06:28:20;3.57;;;1.10;;
61911;SDS011;49973;52.084;5.412;2023-04-25T06:30:51;6.00;;;1.60;;
61911;SDS011;49973;52.084;5.412;2023-04-25T06:33:20;6.83;;;1.47;;
61911;SDS011;49973;52.084;5.412;2023-04-25T06:35:49;4.47;;;1.40;;
61911;SDS011;49973;52.084;5.412;2023-04-25T06:38:22;7.07;;;1.40;;
61911;SDS011;49973;52.084;5.412;2023-04-25T06:40:52;4.50;;;1.23;;
61911;SDS011;49973;52.084;5.412;2023-04-25T06:43:21;5.67;;;1.73;;
61911;SDS011;49973;52.084;5.412;2023-04-25T06:46:03;5.13;;;1.17;;
61911;SDS011;49973;52.084;5.412;2023-04-25T06:48:39;6.77;;;1.50;;
61911;SDS011;49973;52.084;5.412;2023-04-25T06:51:08;9.43;;;1.73;;
61911;SDS011;49973;52.084;5.412;2023-04-25T06:53:38;6.63;;;1.90;;
61911;SDS011;49973;52.084;5.412;2023-04-25T06:56:11;2.27;;;1.37;;
61911;SDS011;49973;52.084;5.412;2023-04-25T06:58:54;7.93;;;1.60;;
61911;SDS011;49973;52.084;5.412;2023-04-25T07:01:31;5.93;;;1.50;;
61911;SDS011;49973;52.084;5.412;2023-04-25T07:04:03;2.93;;;1.23;;
61911;SDS011;49973;52.084;5.412;2023-04-25T07:06:35;8.20;;;1.93;;
61911;SDS011;49973;52.084;5.412;2023-04-25T07:09:09;5.73;;;1.70;;
61911;SDS011;49973;52.084;5.412;2023-04-25T07:11:38;8.27;;;1.33;;
61911;SDS011;49973;52.084;5.412;2023-04-25T07:14:07;8.47;;;1.47;;
61911;SDS011;49973;52.084;5.412;2023-04-25T07:16:37;6.27;;;1.60;;
61911;SDS011;49973;52.084;5.412;2023-04-25T07:19:05;6.23;;;1.83;;
61911;SDS011;49973;52.084;5.412;2023-04-25T07:21:35;8.70;;;1.60;;
61911;SDS011;49973;52.084;5.412;2023-04-25T07:24:05;3.47;;;1.00;;
61911;SDS011;49973;52.084;5.412;2023-04-25T07:26:39;10.10;;;1.30;;
61911;SDS011;49973;52.084;5.412;2023-04-25T07:29:18;5.43;;;1.57;;
61911;SDS011;49973;52.084;5.412;2023-04-25T07:31:48;7.33;;;1.43;;
61911;SDS011;49973;52.084;5.412;2023-04-25T07:34:19;3.13;;;1.60;;
61911;SDS011;49973;52.084;5.412;2023-04-25T07:36:48;10.23;;;1.33;;
61911;SDS011;49973;52.084;5.412;2023-04-25T07:39:17;5.10;;;1.60;;
61911;SDS011;49973;52.084;5.412;2023-04-25T07:41:46;4.03;;;1.90;;
61911;SDS011;49973;52.084;5.412;2023-04-25T07:44:21;5.93;;;1.20;;
61911;SDS011;49973;52.084;5.412;2023-04-25T07:46:51;7.03;;;1.63;;
61911;SDS011;49973;52.084;5.412;2023-04-25T07:49:20;6.30;;;0.90;;
61911;SDS011;49973;52.084;5.412;2023-04-25T07:51:49;5.10;;;1.07;;
61911;SDS011;49973;52.084;5.412;2023-04-25T07:54:19;4.00;;;1.17;;
61911;SDS011;49973;52.084;5.412;2023-04-25T07:56:59;3.57;;;1.30;;
61911;SDS011;49973;52.084;5.412;2023-04-25T07:59:30;1.90;;;0.77;;
61911;SDS011;49973;52.084;5.412;2023-04-25T08:02:02;4.67;;;1.17;;
61911;SDS011;49973;52.084;5.412;2023-04-25T08:04:31;7.10;;;1.30;;
61911;SDS011;49973;52.084;5.412;2023-04-25T08:07:03;5.23;;;1.57;;
61911;SDS011;49973;52.084;5.412;2023-04-25T08:09:40;8.73;;;1.50;;
61911;SDS011;49973;52.084;5.412;2023-04-25T08:12:16;6.10;;;1.03;;
61911;SDS011;49973;52.084;5.412;2023-04-25T08:14:46;2.83;;;0.93;;
61911;SDS011;49973;52.084;5.412;2023-04-25T08:17:16;6.43;;;1.63;;
61911;SDS011;49973;52.084;5.412;2023-04-25T08:19:44;3.27;;;1.47;;
61911;SDS011;49973;52.084;5.412;2023-04-25T08:22:22;4.87;;;1.57;;
61911;SDS011;49973;52.084;5.412;2023-04-25T08:25:10;6.23;;;1.33;;
61911;SDS011;49973;52.084;5.412;2023-04-25T08:27:40;4.70;;;0.97;;
61911;SDS011;49973;52.084;5.412;2023-04-25T08:30:09;5.93;;;0.90;;
61911;SDS011;49973;52.084;5.412;2023-04-25T08:32:41;5.87;;;1.00;;
61911;SDS011;49973;52.084;5.412;2023-04-25T08:35:39;7.20;;;1.23;;
61911;SDS011;49973;52.084;5.412;2023-04-25T08:38:09;4.33;;;0.93;;
61911;SDS011;49973;52.084;5.412;2023-04-25T08:40:38;4.83;;;0.73;;
61911;SDS011;49973;52.084;5.412;2023-04-25T08:43:14;1.23;;;0.60;;
61911;SDS011;49973;52.084;5.412;2023-04-25T08:45:46;1.33;;;0.53;;
61911;SDS011;49973;52.084;5.412;2023-04-25T08:48:30;1.83;;;0.63;;
61911;SDS011;49973;52.084;5.412;2023-04-25T08:51:03;1.60;;;0.83;;
61911;SDS011;49973;52.084;5.412;2023-04-25T08:53:38;3.93;;;0.83;;
61911;SDS011;49973;52.084;5.412;2023-04-25T08:56:09;3.13;;;0.67;;
61911;SDS011;49973;52.084;5.412;2023-04-25T08:58:41;1.87;;;0.53;;
61911;SDS011;49973;52.084;5.412;2023-04-25T09:01:10;1.20;;;1.00;;
61911;SDS011;49973;52.084;5.412;2023-04-25T09:03:48;5.03;;;1.10;;
61911;SDS011;49973;52.084;5.412;2023-04-25T09:06:18;4.43;;;1.47;;
61911;SDS011;49973;52.084;5.412;2023-04-25T09:08:49;8.20;;;1.30;;
61911;SDS011;49973;52.084;5.412;2023-04-25T09:11:18;1.77;;;0.93;;
61911;SDS011;49973;52.084;5.412;2023-04-25T09:13:54;1.43;;;0.63;;
61911;SDS011;49973;52.084;5.412;2023-04-25T09:17:01;3.73;;;1.17;;
61911;SDS011;49973;52.084;5.412;2023-04-25T09:19:41;3.20;;;0.90;;
61911;SDS011;49973;52.084;5.412;2023-04-25T09:22:20;3.40;;;0.63;;
61911;SDS011;49973;52.084;5.412;2023-04-25T09:24:50;6.90;;;1.67;;
61911;SDS011;49973;52.084;5.412;2023-04-25T09:27:21;10.77;;;1.40;;
61911;SDS011;49973;52.084;5.412;2023-04-25T09:30:00;2.80;;;1.00;;
61911;SDS011;49973;52.084;5.412;2023-04-25T09:32:43;3.83;;;0.80;;
61911;SDS011;49973;52.084;5.412;2023-04-25T09:35:14;1.57;;;0.63;;
61911;SDS011;49973;52.084;5.412;2023-04-25T09:37:53;6.80;;;1.03;;
61911;SDS011;49973;52.084;5.412;2023-04-25T09:40:45;3.00;;;1.10;;
61911;SDS011;49973;52.084;5.412;2023-04-25T09:43:24;2.03;;;0.90;;
61911;SDS011;49973;52.084;5.412;2023-04-25T09:45:54;4.07;;;0.90;;
61911;SDS011;49973;52.084;5.412;2023-04-25T09:48:27;4.00;;;1.10;;
61911;SDS011;49973;52.084;5.412;2023-04-25T09:51:06;2.20;;;0.63;;
61911;SDS011;49973;52.084;5.412;2023-04-25T09:53:37;1.47;;;0.60;;
61911;SDS011;49973;52.084;5.412;2023-04-25T09:56:27;9.07;;;1.47;;
61911;SDS011;49973;52.084;5.412;2023-04-25T09:59:06;3.40;;;0.87;;
61911;SDS011;49973;52.084;5.412;2023-04-25T10:01:37;1.63;;;1.00;;
61911;SDS011;49973;52.084;5.412;2023-04-25T10:04:14;5.57;;;1.20;;
61911;SDS011;49973;52.084;5.412;2023-04-25T10:07:24;5.07;;;0.80;;
61911;SDS011;49973;52.084;5.412;2023-04-25T10:09:58;1.10;;;0.80;;
61911;SDS011;49973;52.084;5.412;2023-04-25T10:12:28;4.37;;;1.50;;
61911;SDS011;49973;52.084;5.412;2023-04-25T10:14:58;1.53;;;0.87;;
61911;SDS011;49973;52.084;5.412;2023-04-25T10:17:27;3.57;;;1.17;;
61911;SDS011;49973;52.084;5.412;2023-04-25T10:19:56;3.17;;;1.10;;
61911;SDS011;49973;52.084;5.412;2023-04-25T10:22:29;6.07;;;1.33;;
61911;SDS011;49973;52.084;5.412;2023-04-25T10:25:00;5.43;;;1.17;;
61911;SDS011;49973;52.084;5.412;2023-04-25T10:27:31;4.43;;;0.90;;
61911;SDS011;49973;52.084;5.412;2023-04-25T10:30:00;4.60;;;0.87;;
61911;SDS011;49973;52.084;5.412;2023-04-25T10:32:31;5.00;;;1.00;;
61911;SDS011;49973;52.084;5.412;2023-04-25T10:35:09;8.47;;;1.00;;
61911;SDS011;49973;52.084;5.412;2023-04-25T10:37:53;5.40;;;1.10;;
61911;SDS011;49973;52.084;5.412;2023-04-25T10:40:25;1.43;;;0.73;;
61911;SDS011;49973;52.084;5.412;2023-04-25T10:42:54;6.07;;;0.93;;
61911;SDS011;49973;52.084;5.412;2023-04-25T10:45:23;7.70;;;1.20;;
61911;SDS011;49973;52.084;5.412;2023-04-25T10:47:53;2.03;;;0.70;;
61911;SDS011;49973;52.084;5.412;2023-04-25T10:50:23;5.40;;;1.10;;
61911;SDS011;49973;52.084;5.412;2023-04-25T10:53:15;2.47;;;0.93;;
61911;SDS011;49973;52.084;5.412;2023-04-25T10:55:49;1.50;;;0.50;;
61911;SDS011;49973;52.084;5.412;2023-04-25T10:58:20;4.57;;;0.60;;
61911;SDS011;49973;52.084;5.412;2023-04-25T11:00:50;4.47;;;0.80;;
61911;SDS011;49973;52.084;5.412;2023-04-25T11:03:23;4.87;;;1.37;;
61911;SDS011;49973;52.084;5.412;2023-04-25T11:05:52;4.10;;;0.70;;
61911;SDS011;49973;52.084;5.412;2023-04-25T11:08:28;4.80;;;1.07;;
61911;SDS011;49973;52.084;5.412;2023-04-25T11:11:09;3.20;;;1.00;;
61911;SDS011;49973;52.084;5.412;2023-04-25T11:13:38;4.70;;;0.80;;
61911;SDS011;49973;52.084;5.412;2023-04-25T11:16:07;0.70;;;0.57;;
61911;SDS011;49973;52.084;5.412;2023-04-25T11:18:40;5.00;;;0.80;;
61911;SDS011;49973;52.084;5.412;2023-04-25T11:21:09;0.80;;;0.60;;
61911;SDS011;49973;52.084;5.412;2023-04-25T11:23:40;2.37;;;0.80;;
61911;SDS011;49973;52.084;5.412;2023-04-25T11:26:09;9.30;;;1.13;;
61911;SDS011;49973;52.084;5.412;2023-04-25T11:28:37;7.33;;;1.30;;
61911;SDS011;49973;52.084;5.412;2023-04-25T11:31:06;4.07;;;1.10;;
61911;SDS011;49973;52.084;5.412;2023-04-25T11:33:36;2.37;;;1.23;;
61911;SDS011;49973;52.084;5.412;2023-04-25T11:36:05;3.63;;;0.73;;
61911;SDS011;49973;52.084;5.412;2023-04-25T11:38:34;6.97;;;1.03;;
61911;SDS011;49973;52.084;5.412;2023-04-25T11:41:04;3.83;;;0.83;;
61911;SDS011;49973;52.084;5.412;2023-04-25T11:43:33;5.03;;;0.77;;
61911;SDS011;49973;52.084;5.412;2023-04-25T11:46:01;3.70;;;1.00;;
61911;SDS011;49973;52.084;5.412;2023-04-25T11:48:38;2.87;;;1.30;;
61911;SDS011;49973;52.084;5.412;2023-04-25T11:51:06;2.47;;;1.17;;
61911;SDS011;49973;52.084;5.412;2023-04-25T11:53:35;6.37;;;1.10;;
61911;SDS011;49973;52.084;5.412;2023-04-25T11:56:10;5.73;;;1.23;;
61911;SDS011;49973;52.084;5.412;2023-04-25T11:58:55;2.13;;;0.77;;
61911;SDS011;49973;52.084;5.412;2023-04-25T12:01:28;2.97;;;0.70;;
61911;SDS011;49973;52.084;5.412;2023-04-25T12:04:11;4.97;;;1.00;;
61911;SDS011;49973;52.084;5.412;2023-04-25T12:06:41;2.53;;;1.00;;
61911;SDS011;49973;52.084;5.412;2023-04-25T12:09:13;4.93;;;1.00;;
61911;SDS011;49973;52.084;5.412;2023-04-25T12:11:46;2.07;;;0.70;;
61911;SDS011;49973;52.084;5.412;2023-04-25T12:14:22;1.77;;;0.83;;
61911;SDS011;49973;52.084;5.412;2023-04-25T12:16:54;2.63;;;0.73;;
61911;SDS011;49973;52.084;5.412;2023-04-25T12:19:24;3.87;;;1.00;;
61911;SDS011;49973;52.084;5.412;2023-04-25T12:21:54;2.50;;;1.03;;
61911;SDS011;49973;52.084;5.412;2023-04-25T12:24:25;0.83;;;0.37;;
61911;SDS011;49973;52.084;5.412;2023-04-25T12:26:59;3.30;;;0.80;;
61911;SDS011;49973;52.084;5.412;2023-04-25T12:29:30;3.77;;;0.93;;
61911;SDS011;49973;52.084;5.412;2023-04-25T12:32:15;3.40;;;1.17;;
61911;SDS011;49973;52.084;5.412;2023-04-25T12:34:44;2.43;;;0.80;;
61911;SDS011;49973;52.084;5.412;2023-04-25T12:37:13;3.23;;;0.70;;
61911;SDS011;49973;52.084;5.412;2023-04-25T12:39:42;2.73;;;1.00;;
61911;SDS011;49973;52.084;5.412;2023-04-25T12:42:12;4.20;;;0.90;;
61911;SDS011;49973;52.084;5.412;2023-04-25T12:44:41;0.73;;;0.67;;
61911;SDS011;49973;52.084;5.412;2023-04-25T12:47:10;3.03;;;0.90;;
61911;SDS011;49973;52.084;5.412;2023-04-25T12:49:38;5.80;;;0.90;;
61911;SDS011;49973;52.084;5.412;2023-04-25T12:52:07;2.93;;;0.90;;
61911;SDS011;49973;52.084;5.412;2023-04-25T12:54:36;14.17;;;1.17;;
61911;SDS011;49973;52.084;5.412;2023-04-25T12:57:05;1.80;;;0.67;;
61911;SDS011;49973;52.084;5.412;2023-04-25T12:59:35;4.20;;;0.97;;
61911;SDS011;49973;52.084;5.412;2023-04-25T13:02:04;4.63;;;0.70;;
61911;SDS011;49973;52.084;5.412;2023-04-25T13:04:33;2.23;;;0.50;;
61911;SDS011;49973;52.084;5.412;2023-04-25T13:07:01;3.40;;;0.93;;
61911;SDS011;49973;52.084;5.412;2023-04-25T13:09:30;2.20;;;0.67;;
61911;SDS011;49973;52.084;5.412;2023-04-25T13:11:59;4.50;;;0.70;;
61911;SDS011;49973;52.084;5.412;2023-04-25T13:14:28;3.20;;;0.80;;
61911;SDS011;49973;52.084;5.412;2023-04-25T13:16:58;5.37;;;1.07;;
61911;SDS011;49973;52.084;5.412;2023-04-25T13:19:27;7.77;;;1.27;;
61911;SDS011;49973;52.084;5.412;2023-04-25T13:21:56;1.73;;;0.87;;
61911;SDS011;49973;52.084;5.412;2023-04-25T13:24:25;3.60;;;1.00;;
61911;SDS011;49973;52.084;5.412;2023-04-25T13:26:54;2.80;;;1.13;;
61911;SDS011;49973;52.084;5.412;2023-04-25T13:29:23;1.97;;;0.70;;
61911;SDS011;49973;52.084;5.412;2023-04-25T13:31:52;4.07;;;0.90;;
61911;SDS011;49973;52.084;5.412;2023-04-25T13:34:22;4.77;;;0.80;;
61911;SDS011;49973;52.084;5.412;2023-04-25T13:36:50;6.43;;;1.17;;
61911;SDS011;49973;52.084;5.412;2023-04-25T13:39:19;2.43;;;0.90;;
61911;SDS011;49973;52.084;5.412;2023-04-25T13:41:48;3.53;;;0.90;;
61911;SDS011;49973;52.084;5.412;2023-04-25T13:44:16;1.73;;;1.00;;
61911;SDS011;49973;52.084;5.412;2023-04-25T13:46:45;4.13;;;0.60;;
61911;SDS011;49973;52.084;5.412;2023-04-25T13:49:14;2.47;;;0.83;;
61911;SDS011;49973;52.084;5.412;2023-04-25T13:51:44;5.00;;;0.97;;
61911;SDS011;49973;52.084;5.412;2023-04-25T13:54:13;5.20;;;1.00;;
61911;SDS011;49973;52.084;5.412;2023-04-25T13:56:41;5.50;;;0.90;;
61911;SDS011;49973;52.084;5.412;2023-04-25T13:59:10;1.47;;;0.80;;
61911;SDS011;49973;52.084;5.412;2023-04-25T14:01:39;2.00;;;0.70;;
61911;SDS011;49973;52.084;5.412;2023-04-25T14:04:07;4.63;;;1.00;;
61911;SDS011;49973;52.084;5.412;2023-04-25T14:06:36;2.70;;;0.90;;
61911;SDS011;49973;52.084;5.412;2023-04-25T14:09:06;3.63;;;0.73;;
61911;SDS011;49973;52.084;5.412;2023-04-25T14:11:37;3.27;;;0.90;;
61911;SDS011;49973;52.084;5.412;2023-04-25T14:14:05;2.17;;;0.97;;
61911;SDS011;49973;52.084;5.412;2023-04-25T14:16:34;5.27;;;1.00;;
61911;SDS011;49973;52.084;5.412;2023-04-25T14:19:03;3.77;;;1.00;;
61911;SDS011;49973;52.084;5.412;2023-04-25T14:21:32;11.20;;;0.90;;
61911;SDS011;49973;52.084;5.412;2023-04-25T14:24:00;3.97;;;1.20;;
61911;SDS011;49973;52.084;5.412;2023-04-25T14:26:30;2.83;;;1.20;;
61911;SDS011;49973;52.084;5.412;2023-04-25T14:28:59;2.83;;;0.90;;
61911;SDS011;49973;52.084;5.412;2023-04-25T14:31:28;3.00;;;1.10;;
61911;SDS011;49973;52.084;5.412;2023-04-25T14:33:57;2.67;;;1.00;;
61911;SDS011;49973;52.084;5.412;2023-04-25T14:36:25;8.33;;;1.17;;
61911;SDS011;49973;52.084;5.412;2023-04-25T14:38:55;1.80;;;0.80;;
61911;SDS011;49973;52.084;5.412;2023-04-25T14:41:24;6.17;;;0.80;;
61911;SDS011;49973;52.084;5.412;2023-04-25T14:43:55;3.13;;;0.90;;
61911;SDS011;49973;52.084;5.412;2023-04-25T14:46:24;6.73;;;1.23;;
61911;SDS011;49973;52.084;5.412;2023-04-25T14:48:53;1.33;;;0.63;;
61911;SDS011;49973;52.084;5.412;2023-04-25T14:51:23;2.97;;;0.70;;
61911;SDS011;49973;52.084;5.412;2023-04-25T14:53:53;5.70;;;1.23;;
61911;SDS011;49973;52.084;5.412;2023-04-25T14:56:22;6.77;;;1.23;;
61911;SDS011;49973;52.084;5.412;2023-04-25T14:58:50;1.50;;;0.80;;
61911;SDS011;49973;52.084;5.412;2023-04-25T15:01:20;1.97;;;0.90;;
61911;SDS011;49973;52.084;5.412;2023-04-25T15:03:50;3.03;;;0.90;;
61911;SDS011;49973;52.084;5.412;2023-04-25T15:06:19;7.00;;;1.10;;
61911;SDS011;49973;52.084;5.412;2023-04-25T15:08:48;1.23;;;0.87;;
61911;SDS011;49973;52.084;5.412;2023-04-25T15:11:17;1.00;;;0.70;;
61911;SDS011;49973;52.084;5.412;2023-04-25T15:13:47;3.33;;;1.13;;
61911;SDS011;49973;52.084;5.412;2023-04-25T15:16:17;6.63;;;1.83;;